地図

経路データ

SID SEASON NUMBER BASIN SUBBASIN NAME ISO_TIME NATURE LAT LON WMO_WIND WMO_PRES WMO_AGENCY TRACK_TYPE DIST2LAND LANDFALL IFLAG USA_AGENCY USA_ATCF_ID USA_LAT USA_LON USA_RECORD USA_STATUS USA_WIND USA_PRES USA_SSHS USA_R34_NE USA_R34_SE USA_R34_SW USA_R34_NW USA_R50_NE USA_R50_SE USA_R50_SW USA_R50_NW USA_R64_NE USA_R64_SE USA_R64_SW USA_R64_NW USA_POCI USA_ROCI USA_RMW USA_EYE TOKYO_LAT TOKYO_LON TOKYO_GRADE TOKYO_WIND TOKYO_PRES TOKYO_R50_DIR TOKYO_R50_LONG TOKYO_R50_SHORT TOKYO_R30_DIR TOKYO_R30_LONG TOKYO_R30_SHORT TOKYO_LAND CMA_LAT CMA_LON CMA_CAT CMA_WIND CMA_PRES HKO_LAT HKO_LON HKO_CAT HKO_WIND HKO_PRES NEWDELHI_LAT NEWDELHI_LON NEWDELHI_GRADE NEWDELHI_WIND NEWDELHI_PRES NEWDELHI_CI NEWDELHI_DP NEWDELHI_POCI REUNION_LAT REUNION_LON REUNION_TYPE REUNION_WIND REUNION_PRES REUNION_TNUM REUNION_CI REUNION_RMW REUNION_R34_NE REUNION_R34_SE REUNION_R34_SW REUNION_R34_NW REUNION_R50_NE REUNION_R50_SE REUNION_R50_SW REUNION_R50_NW REUNION_R64_NE REUNION_R64_SE REUNION_R64_SW REUNION_R64_NW BOM_LAT BOM_LON BOM_TYPE BOM_WIND BOM_PRES BOM_TNUM BOM_CI BOM_RMW BOM_R34_NE BOM_R34_SE BOM_R34_SW BOM_R34_NW BOM_R50_NE BOM_R50_SE BOM_R50_SW BOM_R50_NW BOM_R64_NE BOM_R64_SE BOM_R64_SW BOM_R64_NW BOM_ROCI BOM_POCI BOM_EYE BOM_POS_METHOD BOM_PRES_METHOD NADI_LAT NADI_LON NADI_CAT NADI_WIND NADI_PRES WELLINGTON_LAT WELLINGTON_LON WELLINGTON_WIND WELLINGTON_PRES DS824_LAT DS824_LON DS824_STAGE DS824_WIND DS824_PRES TD9636_LAT TD9636_LON TD9636_STAGE TD9636_WIND TD9636_PRES TD9635_LAT TD9635_LON TD9635_WIND TD9635_PRES TD9635_ROCI NEUMANN_LAT NEUMANN_LON NEUMANN_CLASS NEUMANN_WIND NEUMANN_PRES MLC_LAT MLC_LON MLC_CLASS MLC_WIND MLC_PRES USA_GUST BOM_GUST BOM_GUST_PER REUNION_GUST REUNION_GUST_PER USA_SEAHGT USA_SEARAD_NE USA_SEARAD_SE USA_SEARAD_SW USA_SEARAD_NW STORM_SPEED STORM_DIR
1879305N15097 1879 30 NI BB NOT_NAMED 1879-11-01 00:00:00 TS 15.4000 97.0000 main 75 75 _________O____ -1 15.4000 97.0000 TC 30 2 335
1879305N15097 1879 30 NI BB NOT_NAMED 1879-11-01 03:00:00 TS 15.5017 96.9600 main 78 78 _________PO___ -1 15.5525 96.9400 TC 30 15.4000 97.0000 1 2 343
1879305N15097 1879 30 NI BB NOT_NAMED 1879-11-01 06:00:00 TS 15.6363 96.9294 main 88 82 _________OP___ -1 15.7000 96.9000 TC 30 15.5406 96.9735 1 3 351
1879305N15097 1879 30 NI BB NOT_NAMED 1879-11-01 09:00:00 TS 15.7750 96.9161 main 82 78 _________PP___ -1 15.8425 96.8925 TC 30 15.6850 96.9475 1 3 357
1879305N15097 1879 30 NI BB NOT_NAMED 1879-11-01 12:00:00 TS 15.9184 96.9114 main 78 59 _________OP___ -1 16.0000 96.9000 TC 30 15.8369 96.9228 1 3 0
1879305N15097 1879 30 NI BB NOT_NAMED 1879-11-01 15:00:00 TS 16.1000 96.9037 main 59 39 _________PO___ -1 16.2000 96.9075 TC 30 16.0000 96.9000 1 4 0
1879305N15097 1879 30 NI BB NOT_NAMED 1879-11-01 18:00:00 TS 16.2880 96.8895 main 39 24 _________OP___ -1 16.4000 96.9000 TC 30 16.1759 96.8790 1 4 355
1879305N15097 1879 30 NI BB NOT_NAMED 1879-11-01 21:00:00 TS 16.4612 96.8575 main 24 10 _________PP___ -1 16.5650 96.8575 TC 30 16.3575 96.8575 1 3 349
1879305N15097 1879 30 NI BB NOT_NAMED 1879-11-02 00:00:00 TS 16.6177 96.8161 main 10 10 _________OP___ -1 16.7000 96.8000 TC 30 16.5353 96.8322 1 3 345
1879305N15097 1879 30 NI BB NOT_NAMED 1879-11-02 03:00:00 TS 16.7500 96.7750 main 0 0 _________PO___ -1 16.8000 96.7500 TC 30 16.7000 96.8000 1 3 342
1879305N15097 1879 30 NI BB NOT_NAMED 1879-11-02 06:00:00 TS 16.8697 96.7286 main 0 0 _________OP___ -1 16.9000 96.7000 TC 30 16.8394 96.7572 1 3 342
1879305N15097 1879 30 NI BB NOT_NAMED 1879-11-02 09:00:00 TS 17.0075 96.6788 main 0 0 _________PP___ -1 17.0500 96.6500 TC 30 16.9650 96.7075 1 3 341
1879305N15097 1879 30 NI BB NOT_NAMED 1879-11-02 12:00:00 TS 17.1416 96.6270 main 0 0 _________OP___ -1 17.2000 96.6000 TC 30 17.0831 96.6541 1 3 338
1879305N15097 1879 30 NI BB NOT_NAMED 1879-11-02 15:00:00 TS 17.2500 96.5750 main 0 0 _________PO___ -1 17.3000 96.5500 TC 30 17.2000 96.6000 1 2 336
1879305N15097 1879 30 NI BB NOT_NAMED 1879-11-02 18:00:00 TS 17.3645 96.5270 main 0 0 _________OP___ -1 17.4000 96.5000 TC 30 17.3291 96.5540 1 3 341
1879305N15097 1879 30 NI BB NOT_NAMED 1879-11-02 21:00:00 TS 17.5037 96.4787 main 0 0 _________PP___ -1 17.5500 96.4500 TC 30 17.4575 96.5075 1 3 340
1879305N15097 1879 30 NI BB NOT_NAMED 1879-11-03 00:00:00 TS 17.6411 96.4286 main 0 0 _________OP___ -1 17.7000 96.4000 TC 30 17.5822 96.4572 1 3 339
1879305N15097 1879 30 NI BB NOT_NAMED 1879-11-03 03:00:00 TS 17.7537 96.3787 main 0 0 _________PO___ -1 17.8075 96.3575 TC 30 17.7000 96.4000 1 2 334
1879305N15097 1879 30 NI BB NOT_NAMED 1879-11-03 06:00:00 TS 17.8516 96.3161 main 0 0 _________OP___ -1 17.9000 96.3000 TC 30 17.8031 96.3322 1 2 323
1879305N15097 1879 30 NI BB NOT_NAMED 1879-11-03 09:00:00 TS 17.9463 96.2287 main 0 0 _________PP___ -1 17.9925 96.2000 TC 30 17.9000 96.2575 1 3 319
1879305N15097 1879 30 NI BB NOT_NAMED 1879-11-03 12:00:00 TS 18.0484 96.1395 main 0 0 _________OP___ -1 18.1000 96.1000 TC 30 17.9969 96.1790 1 3 327
1879305N15097 1879 30 NI BB NOT_NAMED 1879-11-03 15:00:00 TS 18.1750 96.0750 main 0 0 _________PO___ -1 18.2500 96.0500 TC 30 18.1000 96.1000 1 3 337
1879305N15097 1879 30 NI BB NOT_NAMED 1879-11-03 18:00:00 TS 18.3089 96.0186 main 0 0 _________OP___ -1 18.4000 96.0000 TC 30 18.2178 96.0371 1 3 333
1879305N15097 1879 30 NI BB NOT_NAMED 1879-11-03 21:00:00 TS 18.4212 95.9437 main 0 0 _________PP___ -1 18.5000 95.9150 TC 30 18.3424 95.9724 1 3 324
1879305N15097 1879 30 NI BB NOT_NAMED 1879-11-04 00:00:00 TS 18.5354 95.8482 main 0 0 _________OP___ -1 18.6000 95.8000 TC 30 18.4709 95.8965 1 3 321
1879305N15097 1879 30 NI BB NOT_NAMED 1879-11-04 03:00:00 TS 18.6750 95.7288 main 0 0 _________PO___ -1 18.7500 95.6575 TC 30 18.6000 95.8000 1 4 318
1879305N15097 1879 30 NI BB NOT_NAMED 1879-11-04 06:00:00 TS 18.8125 95.5858 main 0 0 _________OP___ -1 18.9000 95.5000 TC 30 18.7250 95.6716 1 4 313
1879305N15097 1879 30 NI BB NOT_NAMED 1879-11-04 09:00:00 TS 18.9288 95.4362 main 0 0 _________PP___ -1 19.0075 95.3500 TC 30 18.8500 95.5225 1 4 308
1879305N15097 1879 30 NI BB NOT_NAMED 1879-11-04 12:00:00 TS 19.0375 95.2811 main 0 0 _________OP___ -1 19.1000 95.2000 TC 30 18.9750 95.3622 1 4 307
1879305N15097 1879 30 NI BB NOT_NAMED 1879-11-04 15:00:00 TS 19.1462 95.1250 main 0 0 _________PO___ -1 19.1925 95.0500 TC 30 19.1000 95.2000 1 4 308
1879305N15097 1879 30 NI BB NOT_NAMED 1879-11-04 18:00:00 TS 19.2572 94.9820 main 0 0 _________OP___ -1 19.3000 94.9000 TC 30 19.2250 95.0435 1 4 311
1879305N15097 1879 30 NI BB NOT_NAMED 1879-11-04 21:00:00 TS 19.3860 94.8356 main 0 0 _________PP___ -1 19.4400 94.7501 TC 30 19.3500 94.8926 1 4 314
1879305N15097 1879 30 NI BB NOT_NAMED 1879-11-05 00:00:00 TS 19.5167 94.6970 main 0 0 _________OP___ -1 19.6000 94.6000 TC 30 19.4751 94.7455 1 3 314
1879305N15097 1879 30 NI BB NOT_NAMED 1879-11-05 03:00:00 NR 19.6000 94.6000 main 0 __________O___ -1 TC 19.6000 94.6000 1 2 315

IBTrACS Databaseについて

本データベースは、米国NOAAが公開する1842年以降の世界の熱帯低気圧のベストトラックデータアーカイブInternational Best Track Archive for Climate Stewardship (IBTrACS)を、ウェブで閲覧しやすい形式に変換したものです。

最終更新日:2021-10-25